sensor_id;sensor_type;location;lat;lon;timestamp;P1;durP1;ratioP1;P2;durP2;ratioP2
18796;SDS011;9526;52.612;13.300;2022-12-07T00:00:46;23.27;;;9.70;;
18796;SDS011;9526;52.612;13.300;2022-12-07T00:03:09;22.50;;;10.10;;
18796;SDS011;9526;52.612;13.300;2022-12-07T00:05:33;21.37;;;10.33;;
18796;SDS011;9526;52.612;13.300;2022-12-07T00:07:57;23.53;;;10.47;;
18796;SDS011;9526;52.612;13.300;2022-12-07T00:10:20;20.87;;;9.53;;
18796;SDS011;9526;52.612;13.300;2022-12-07T00:12:44;23.97;;;10.47;;
18796;SDS011;9526;52.612;13.300;2022-12-07T00:15:08;22.60;;;10.40;;
18796;SDS011;9526;52.612;13.300;2022-12-07T00:17:34;23.07;;;10.77;;
18796;SDS011;9526;52.612;13.300;2022-12-07T00:19:57;22.20;;;9.30;;
18796;SDS011;9526;52.612;13.300;2022-12-07T00:22:21;21.43;;;9.90;;
18796;SDS011;9526;52.612;13.300;2022-12-07T00:24:45;25.03;;;11.27;;
18796;SDS011;9526;52.612;13.300;2022-12-07T00:27:08;23.97;;;10.63;;
18796;SDS011;9526;52.612;13.300;2022-12-07T00:29:32;22.23;;;9.87;;
18796;SDS011;9526;52.612;13.300;2022-12-07T00:31:55;21.17;;;10.03;;
18796;SDS011;9526;52.612;13.300;2022-12-07T00:34:20;20.57;;;9.77;;
18796;SDS011;9526;52.612;13.300;2022-12-07T00:36:44;22.40;;;9.90;;
18796;SDS011;9526;52.612;13.300;2022-12-07T00:39:08;22.17;;;10.77;;
18796;SDS011;9526;52.612;13.300;2022-12-07T00:41:32;25.60;;;11.10;;
18796;SDS011;9526;52.612;13.300;2022-12-07T00:43:55;21.83;;;9.23;;
18796;SDS011;9526;52.612;13.300;2022-12-07T00:46:20;21.87;;;10.30;;
18796;SDS011;9526;52.612;13.300;2022-12-07T00:48:44;19.73;;;9.57;;
18796;SDS011;9526;52.612;13.300;2022-12-07T00:51:11;20.53;;;9.87;;
18796;SDS011;9526;52.612;13.300;2022-12-07T00:53:36;21.40;;;10.00;;
18796;SDS011;9526;52.612;13.300;2022-12-07T00:56:04;16.47;;;8.53;;
18796;SDS011;9526;52.612;13.300;2022-12-07T00:58:28;23.43;;;10.00;;
18796;SDS011;9526;52.612;13.300;2022-12-07T01:00:52;23.70;;;10.17;;
18796;SDS011;9526;52.612;13.300;2022-12-07T01:03:16;22.93;;;9.43;;
18796;SDS011;9526;52.612;13.300;2022-12-07T01:05:40;22.67;;;10.20;;
18796;SDS011;9526;52.612;13.300;2022-12-07T01:08:13;26.00;;;10.80;;
18796;SDS011;9526;52.612;13.300;2022-12-07T01:10:37;25.70;;;10.33;;
18796;SDS011;9526;52.612;13.300;2022-12-07T01:13:00;25.47;;;10.17;;
18796;SDS011;9526;52.612;13.300;2022-12-07T01:15:24;25.23;;;10.20;;
18796;SDS011;9526;52.612;13.300;2022-12-07T01:17:48;23.13;;;10.37;;
18796;SDS011;9526;52.612;13.300;2022-12-07T01:20:12;27.00;;;9.97;;
18796;SDS011;9526;52.612;13.300;2022-12-07T01:22:37;23.20;;;10.20;;
18796;SDS011;9526;52.612;13.300;2022-12-07T01:25:02;24.07;;;10.87;;
18796;SDS011;9526;52.612;13.300;2022-12-07T01:27:27;24.67;;;10.37;;
18796;SDS011;9526;52.612;13.300;2022-12-07T01:29:50;23.73;;;10.07;;
18796;SDS011;9526;52.612;13.300;2022-12-07T01:32:14;23.63;;;10.23;;
18796;SDS011;9526;52.612;13.300;2022-12-07T01:34:37;21.93;;;9.33;;
18796;SDS011;9526;52.612;13.300;2022-12-07T01:37:01;19.87;;;9.67;;
18796;SDS011;9526;52.612;13.300;2022-12-07T01:39:25;22.73;;;9.87;;
18796;SDS011;9526;52.612;13.300;2022-12-07T01:41:50;19.03;;;9.70;;
18796;SDS011;9526;52.612;13.300;2022-12-07T01:44:18;19.43;;;9.67;;
18796;SDS011;9526;52.612;13.300;2022-12-07T01:46:45;18.27;;;8.47;;
18796;SDS011;9526;52.612;13.300;2022-12-07T01:49:10;19.57;;;9.77;;
18796;SDS011;9526;52.612;13.300;2022-12-07T01:51:40;20.07;;;10.20;;
18796;SDS011;9526;52.612;13.300;2022-12-07T01:54:05;20.83;;;9.60;;
18796;SDS011;9526;52.612;13.300;2022-12-07T01:56:30;20.63;;;9.60;;
18796;SDS011;9526;52.612;13.300;2022-12-07T01:58:56;19.87;;;9.07;;
18796;SDS011;9526;52.612;13.300;2022-12-07T02:01:22;20.03;;;9.17;;
18796;SDS011;9526;52.612;13.300;2022-12-07T02:03:46;22.63;;;9.23;;
18796;SDS011;9526;52.612;13.300;2022-12-07T02:06:11;18.33;;;9.50;;
18796;SDS011;9526;52.612;13.300;2022-12-07T02:08:39;19.13;;;9.67;;
18796;SDS011;9526;52.612;13.300;2022-12-07T02:11:04;19.20;;;8.80;;
18796;SDS011;9526;52.612;13.300;2022-12-07T02:13:30;20.00;;;9.10;;
18796;SDS011;9526;52.612;13.300;2022-12-07T02:16:03;20.87;;;9.10;;
18796;SDS011;9526;52.612;13.300;2022-12-07T02:18:50;22.70;;;9.37;;
18796;SDS011;9526;52.612;13.300;2022-12-07T02:21:26;18.67;;;9.23;;
18796;SDS011;9526;52.612;13.300;2022-12-07T02:24:08;21.20;;;9.00;;
18796;SDS011;9526;52.612;13.300;2022-12-07T02:30:05;19.80;;;8.07;;
18796;SDS011;9526;52.612;13.300;2022-12-07T02:32:35;18.73;;;8.33;;
18796;SDS011;9526;52.612;13.300;2022-12-07T02:35:07;17.17;;;8.23;;
18796;SDS011;9526;52.612;13.300;2022-12-07T02:37:37;15.07;;;7.37;;
18796;SDS011;9526;52.612;13.300;2022-12-07T02:40:12;17.07;;;8.27;;
18796;SDS011;9526;52.612;13.300;2022-12-07T02:42:42;13.73;;;7.60;;
18796;SDS011;9526;52.612;13.300;2022-12-07T02:45:12;18.23;;;8.53;;
18796;SDS011;9526;52.612;13.300;2022-12-07T02:47:40;16.03;;;8.40;;
18796;SDS011;9526;52.612;13.300;2022-12-07T02:50:06;18.53;;;8.23;;
18796;SDS011;9526;52.612;13.300;2022-12-07T02:52:31;18.90;;;7.90;;
18796;SDS011;9526;52.612;13.300;2022-12-07T02:54:54;18.23;;;7.80;;
18796;SDS011;9526;52.612;13.300;2022-12-07T02:57:22;18.33;;;8.67;;
18796;SDS011;9526;52.612;13.300;2022-12-07T03:00:03;18.77;;;8.20;;
18796;SDS011;9526;52.612;13.300;2022-12-07T03:02:34;19.23;;;8.20;;
18796;SDS011;9526;52.612;13.300;2022-12-07T03:05:11;19.13;;;8.27;;
18796;SDS011;9526;52.612;13.300;2022-12-07T03:08:00;18.17;;;8.30;;
18796;SDS011;9526;52.612;13.300;2022-12-07T03:10:33;20.97;;;8.87;;
18796;SDS011;9526;52.612;13.300;2022-12-07T03:13:04;21.60;;;8.87;;
18796;SDS011;9526;52.612;13.300;2022-12-07T03:15:35;21.80;;;9.67;;
18796;SDS011;9526;52.612;13.300;2022-12-07T03:18:07;20.70;;;9.73;;
18796;SDS011;9526;52.612;13.300;2022-12-07T03:20:33;23.37;;;9.63;;
18796;SDS011;9526;52.612;13.300;2022-12-07T03:23:01;23.57;;;10.07;;
18796;SDS011;9526;52.612;13.300;2022-12-07T03:25:27;24.27;;;10.23;;
18796;SDS011;9526;52.612;13.300;2022-12-07T03:27:53;21.57;;;9.33;;
18796;SDS011;9526;52.612;13.300;2022-12-07T03:30:20;27.87;;;11.27;;
18796;SDS011;9526;52.612;13.300;2022-12-07T03:32:47;35.40;;;11.60;;
18796;SDS011;9526;52.612;13.300;2022-12-07T03:35:18;31.87;;;11.87;;
18796;SDS011;9526;52.612;13.300;2022-12-07T03:37:47;28.53;;;11.77;;
18796;SDS011;9526;52.612;13.300;2022-12-07T03:40:15;31.10;;;12.23;;
18796;SDS011;9526;52.612;13.300;2022-12-07T03:42:45;33.27;;;13.57;;
18796;SDS011;9526;52.612;13.300;2022-12-07T03:45:10;34.23;;;13.17;;
18796;SDS011;9526;52.612;13.300;2022-12-07T03:47:36;34.60;;;13.13;;
18796;SDS011;9526;52.612;13.300;2022-12-07T03:50:07;33.77;;;13.47;;
18796;SDS011;9526;52.612;13.300;2022-12-07T03:52:39;38.43;;;13.93;;
18796;SDS011;9526;52.612;13.300;2022-12-07T03:55:06;34.10;;;13.17;;
18796;SDS011;9526;52.612;13.300;2022-12-07T03:57:35;38.93;;;14.10;;
18796;SDS011;9526;52.612;13.300;2022-12-07T04:00:00;33.30;;;13.50;;
18796;SDS011;9526;52.612;13.300;2022-12-07T04:02:35;32.33;;;11.47;;
18796;SDS011;9526;52.612;13.300;2022-12-07T04:05:00;35.20;;;14.40;;
18796;SDS011;9526;52.612;13.300;2022-12-07T04:07:24;39.87;;;14.10;;
18796;SDS011;9526;52.612;13.300;2022-12-07T04:09:49;40.87;;;15.03;;
18796;SDS011;9526;52.612;13.300;2022-12-07T04:12:13;45.93;;;16.07;;
18796;SDS011;9526;52.612;13.300;2022-12-07T04:14:36;42.33;;;14.90;;
18796;SDS011;9526;52.612;13.300;2022-12-07T04:17:00;35.10;;;12.83;;
18796;SDS011;9526;52.612;13.300;2022-12-07T04:19:24;36.87;;;14.80;;
18796;SDS011;9526;52.612;13.300;2022-12-07T04:21:51;36.73;;;15.13;;
18796;SDS011;9526;52.612;13.300;2022-12-07T04:24:15;44.57;;;14.40;;
18796;SDS011;9526;52.612;13.300;2022-12-07T04:26:40;41.90;;;15.27;;
18796;SDS011;9526;52.612;13.300;2022-12-07T04:29:04;41.93;;;15.20;;
18796;SDS011;9526;52.612;13.300;2022-12-07T04:31:28;43.40;;;15.40;;
18796;SDS011;9526;52.612;13.300;2022-12-07T04:33:52;43.10;;;15.63;;
18796;SDS011;9526;52.612;13.300;2022-12-07T04:36:15;40.07;;;15.53;;
18796;SDS011;9526;52.612;13.300;2022-12-07T04:38:41;42.43;;;15.93;;
18796;SDS011;9526;52.612;13.300;2022-12-07T04:41:05;50.37;;;16.13;;
18796;SDS011;9526;52.612;13.300;2022-12-07T04:43:30;48.23;;;15.67;;
18796;SDS011;9526;52.612;13.300;2022-12-07T04:45:54;44.37;;;15.53;;
18796;SDS011;9526;52.612;13.300;2022-12-07T04:48:17;50.10;;;16.80;;
18796;SDS011;9526;52.612;13.300;2022-12-07T04:50:41;43.10;;;16.57;;
18796;SDS011;9526;52.612;13.300;2022-12-07T04:53:06;43.07;;;16.17;;
18796;SDS011;9526;52.612;13.300;2022-12-07T04:55:30;42.60;;;16.40;;
18796;SDS011;9526;52.612;13.300;2022-12-07T04:57:54;44.37;;;16.57;;
18796;SDS011;9526;52.612;13.300;2022-12-07T05:00:19;44.83;;;17.33;;
18796;SDS011;9526;52.612;13.300;2022-12-07T05:02:42;55.20;;;18.77;;
18796;SDS011;9526;52.612;13.300;2022-12-07T05:05:06;51.23;;;18.33;;
18796;SDS011;9526;52.612;13.300;2022-12-07T05:07:30;52.43;;;17.50;;
18796;SDS011;9526;52.612;13.300;2022-12-07T05:09:54;43.33;;;16.83;;
18796;SDS011;9526;52.612;13.300;2022-12-07T05:12:17;59.83;;;20.17;;
18796;SDS011;9526;52.612;13.300;2022-12-07T05:14:41;61.00;;;20.40;;
18796;SDS011;9526;52.612;13.300;2022-12-07T05:17:06;65.43;;;20.57;;
18796;SDS011;9526;52.612;13.300;2022-12-07T05:19:30;54.80;;;19.37;;
18796;SDS011;9526;52.612;13.300;2022-12-07T05:21:53;58.27;;;20.23;;
18796;SDS011;9526;52.612;13.300;2022-12-07T05:24:17;60.83;;;20.70;;
18796;SDS011;9526;52.612;13.300;2022-12-07T05:26:41;53.03;;;20.03;;
18796;SDS011;9526;52.612;13.300;2022-12-07T05:29:05;63.73;;;20.90;;
18796;SDS011;9526;52.612;13.300;2022-12-07T05:31:29;61.50;;;20.93;;
18796;SDS011;9526;52.612;13.300;2022-12-07T05:33:55;61.07;;;21.97;;
18796;SDS011;9526;52.612;13.300;2022-12-07T05:36:18;52.90;;;19.53;;
18796;SDS011;9526;52.612;13.300;2022-12-07T05:38:42;67.90;;;22.67;;
18796;SDS011;9526;52.612;13.300;2022-12-07T05:41:06;58.00;;;20.77;;
18796;SDS011;9526;52.612;13.300;2022-12-07T05:43:52;65.93;;;20.87;;
18796;SDS011;9526;52.612;13.300;2022-12-07T05:46:14;64.57;;;21.67;;
18796;SDS011;9526;52.612;13.300;2022-12-07T05:48:38;66.47;;;21.37;;
18796;SDS011;9526;52.612;13.300;2022-12-07T05:51:03;64.57;;;21.10;;
18796;SDS011;9526;52.612;13.300;2022-12-07T05:53:26;66.93;;;20.93;;
18796;SDS011;9526;52.612;13.300;2022-12-07T05:55:50;62.80;;;21.77;;
18796;SDS011;9526;52.612;13.300;2022-12-07T05:58:15;54.00;;;18.67;;
18796;SDS011;9526;52.612;13.300;2022-12-07T06:00:56;61.67;;;20.57;;
18796;SDS011;9526;52.612;13.300;2022-12-07T06:03:20;69.07;;;22.27;;
18796;SDS011;9526;52.612;13.300;2022-12-07T06:05:44;69.23;;;22.10;;
18796;SDS011;9526;52.612;13.300;2022-12-07T06:08:09;62.03;;;22.10;;
18796;SDS011;9526;52.612;13.300;2022-12-07T06:10:32;60.87;;;21.20;;
18796;SDS011;9526;52.612;13.300;2022-12-07T06:12:56;51.70;;;19.23;;
18796;SDS011;9526;52.612;13.300;2022-12-07T06:15:18;60.87;;;19.90;;
18796;SDS011;9526;52.612;13.300;2022-12-07T06:17:44;61.43;;;21.33;;
18796;SDS011;9526;52.612;13.300;2022-12-07T06:20:08;66.60;;;21.40;;
18796;SDS011;9526;52.612;13.300;2022-12-07T06:22:31;53.17;;;18.43;;
18796;SDS011;9526;52.612;13.300;2022-12-07T06:24:56;57.30;;;18.60;;
18796;SDS011;9526;52.612;13.300;2022-12-07T06:27:26;52.73;;;17.87;;
18796;SDS011;9526;52.612;13.300;2022-12-07T06:29:49;49.40;;;18.60;;
18796;SDS011;9526;52.612;13.300;2022-12-07T06:32:13;47.67;;;18.37;;
18796;SDS011;9526;52.612;13.300;2022-12-07T06:34:37;33.40;;;11.73;;
18796;SDS011;9526;52.612;13.300;2022-12-07T06:37:00;49.73;;;18.00;;
18796;SDS011;9526;52.612;13.300;2022-12-07T06:39:25;42.83;;;15.97;;
18796;SDS011;9526;52.612;13.300;2022-12-07T06:41:52;53.07;;;18.33;;
18796;SDS011;9526;52.612;13.300;2022-12-07T06:44:15;48.90;;;17.43;;
18796;SDS011;9526;52.612;13.300;2022-12-07T06:46:39;41.90;;;16.67;;
18796;SDS011;9526;52.612;13.300;2022-12-07T06:49:03;56.90;;;18.83;;
18796;SDS011;9526;52.612;13.300;2022-12-07T06:51:27;59.20;;;18.80;;
18796;SDS011;9526;52.612;13.300;2022-12-07T06:53:50;51.07;;;17.87;;
18796;SDS011;9526;52.612;13.300;2022-12-07T06:56:14;54.17;;;18.80;;
18796;SDS011;9526;52.612;13.300;2022-12-07T06:58:39;56.40;;;18.60;;
18796;SDS011;9526;52.612;13.300;2022-12-07T07:01:07;52.73;;;18.10;;
18796;SDS011;9526;52.612;13.300;2022-12-07T07:03:32;58.77;;;18.00;;
18796;SDS011;9526;52.612;13.300;2022-12-07T07:05:56;46.60;;;16.53;;
18796;SDS011;9526;52.612;13.300;2022-12-07T07:08:19;60.73;;;17.93;;
18796;SDS011;9526;52.612;13.300;2022-12-07T07:10:44;49.27;;;18.20;;
18796;SDS011;9526;52.612;13.300;2022-12-07T07:13:08;52.27;;;18.00;;
18796;SDS011;9526;52.612;13.300;2022-12-07T07:15:33;52.80;;;18.33;;
18796;SDS011;9526;52.612;13.300;2022-12-07T07:17:57;60.07;;;18.87;;
18796;SDS011;9526;52.612;13.300;2022-12-07T07:20:28;54.50;;;17.70;;
18796;SDS011;9526;52.612;13.300;2022-12-07T07:22:53;60.60;;;19.30;;
18796;SDS011;9526;52.612;13.300;2022-12-07T07:25:17;44.17;;;15.87;;
18796;SDS011;9526;52.612;13.300;2022-12-07T07:27:41;55.57;;;18.53;;
18796;SDS011;9526;52.612;13.300;2022-12-07T07:30:05;38.33;;;16.20;;
18796;SDS011;9526;52.612;13.300;2022-12-07T07:32:31;51.13;;;17.03;;
18796;SDS011;9526;52.612;13.300;2022-12-07T07:34:55;50.70;;;16.53;;
18796;SDS011;9526;52.612;13.300;2022-12-07T07:37:19;39.27;;;15.00;;
18796;SDS011;9526;52.612;13.300;2022-12-07T07:39:42;39.87;;;15.10;;
18796;SDS011;9526;52.612;13.300;2022-12-07T07:42:06;37.53;;;14.67;;
18796;SDS011;9526;52.612;13.300;2022-12-07T07:44:32;35.70;;;13.67;;
18796;SDS011;9526;52.612;13.300;2022-12-07T07:46:56;28.57;;;12.00;;
18796;SDS011;9526;52.612;13.300;2022-12-07T07:49:21;39.70;;;13.37;;
18796;SDS011;9526;52.612;13.300;2022-12-07T07:51:45;25.87;;;12.53;;
18796;SDS011;9526;52.612;13.300;2022-12-07T07:54:09;28.70;;;11.37;;
18796;SDS011;9526;52.612;13.300;2022-12-07T07:56:33;34.47;;;11.27;;
18796;SDS011;9526;52.612;13.300;2022-12-07T07:58:57;24.97;;;10.07;;
18796;SDS011;9526;52.612;13.300;2022-12-07T08:01:20;20.47;;;9.43;;
18796;SDS011;9526;52.612;13.300;2022-12-07T08:03:44;23.47;;;10.30;;
18796;SDS011;9526;52.612;13.300;2022-12-07T08:06:10;22.13;;;10.50;;
18796;SDS011;9526;52.612;13.300;2022-12-07T08:08:34;26.13;;;9.07;;
18796;SDS011;9526;52.612;13.300;2022-12-07T08:10:57;24.83;;;9.57;;
18796;SDS011;9526;52.612;13.300;2022-12-07T08:13:22;17.07;;;7.57;;
18796;SDS011;9526;52.612;13.300;2022-12-07T08:15:51;19.13;;;8.47;;
18796;SDS011;9526;52.612;13.300;2022-12-07T08:18:15;18.83;;;8.00;;
18796;SDS011;9526;52.612;13.300;2022-12-07T08:20:39;15.93;;;8.20;;
18796;SDS011;9526;52.612;13.300;2022-12-07T08:23:06;16.17;;;7.23;;
18796;SDS011;9526;52.612;13.300;2022-12-07T08:25:31;15.23;;;7.07;;
18796;SDS011;9526;52.612;13.300;2022-12-07T08:27:55;17.20;;;7.20;;
18796;SDS011;9526;52.612;13.300;2022-12-07T08:30:19;12.93;;;5.63;;
18796;SDS011;9526;52.612;13.300;2022-12-07T08:32:44;13.97;;;6.47;;
18796;SDS011;9526;52.612;13.300;2022-12-07T08:35:08;14.17;;;6.67;;
18796;SDS011;9526;52.612;13.300;2022-12-07T08:37:32;13.47;;;6.77;;
18796;SDS011;9526;52.612;13.300;2022-12-07T08:39:57;10.87;;;5.87;;
18796;SDS011;9526;52.612;13.300;2022-12-07T08:42:21;14.20;;;6.80;;
18796;SDS011;9526;52.612;13.300;2022-12-07T08:44:48;14.30;;;6.30;;
18796;SDS011;9526;52.612;13.300;2022-12-07T08:47:12;13.83;;;5.97;;
18796;SDS011;9526;52.612;13.300;2022-12-07T08:49:36;12.87;;;5.77;;
18796;SDS011;9526;52.612;13.300;2022-12-07T08:52:02;11.03;;;5.63;;
18796;SDS011;9526;52.612;13.300;2022-12-07T08:54:27;13.83;;;6.03;;
18796;SDS011;9526;52.612;13.300;2022-12-07T08:56:53;10.60;;;5.93;;
18796;SDS011;9526;52.612;13.300;2022-12-07T08:59:20;14.50;;;5.70;;
18796;SDS011;9526;52.612;13.300;2022-12-07T09:01:44;8.60;;;5.00;;
18796;SDS011;9526;52.612;13.300;2022-12-07T09:04:07;6.57;;;4.70;;
18796;SDS011;9526;52.612;13.300;2022-12-07T09:06:31;7.93;;;4.70;;
18796;SDS011;9526;52.612;13.300;2022-12-07T09:08:56;8.10;;;4.67;;
18796;SDS011;9526;52.612;13.300;2022-12-07T09:11:22;6.37;;;4.10;;
18796;SDS011;9526;52.612;13.300;2022-12-07T09:13:50;9.30;;;3.97;;
18796;SDS011;9526;52.612;13.300;2022-12-07T09:16:14;6.87;;;3.67;;
18796;SDS011;9526;52.612;13.300;2022-12-07T09:18:38;4.60;;;3.13;;
18796;SDS011;9526;52.612;13.300;2022-12-07T09:21:01;4.87;;;2.90;;
18796;SDS011;9526;52.612;13.300;2022-12-07T09:23:25;4.93;;;3.10;;
18796;SDS011;9526;52.612;13.300;2022-12-07T09:25:49;5.23;;;3.17;;
18796;SDS011;9526;52.612;13.300;2022-12-07T09:28:12;6.73;;;3.70;;
18796;SDS011;9526;52.612;13.300;2022-12-07T09:30:37;5.80;;;3.33;;
18796;SDS011;9526;52.612;13.300;2022-12-07T09:33:21;4.57;;;3.27;;
18796;SDS011;9526;52.612;13.300;2022-12-07T09:35:45;5.53;;;3.40;;
18796;SDS011;9526;52.612;13.300;2022-12-07T09:38:09;4.90;;;2.97;;
18796;SDS011;9526;52.612;13.300;2022-12-07T09:40:32;4.43;;;3.43;;
18796;SDS011;9526;52.612;13.300;2022-12-07T09:42:56;5.07;;;3.10;;
18796;SDS011;9526;52.612;13.300;2022-12-07T09:45:21;4.20;;;3.17;;
18796;SDS011;9526;52.612;13.300;2022-12-07T09:47:49;7.20;;;3.40;;
18796;SDS011;9526;52.612;13.300;2022-12-07T09:50:14;3.40;;;2.63;;
18796;SDS011;9526;52.612;13.300;2022-12-07T09:52:42;5.40;;;3.00;;
18796;SDS011;9526;52.612;13.300;2022-12-07T09:55:09;6.77;;;3.13;;
18796;SDS011;9526;52.612;13.300;2022-12-07T09:57:37;4.40;;;3.00;;
18796;SDS011;9526;52.612;13.300;2022-12-07T10:00:01;6.40;;;3.00;;
18796;SDS011;9526;52.612;13.300;2022-12-07T10:02:36;7.17;;;2.80;;
18796;SDS011;9526;52.612;13.300;2022-12-07T10:05:05;3.70;;;2.80;;
18796;SDS011;9526;52.612;13.300;2022-12-07T10:07:33;4.70;;;2.63;;
18796;SDS011;9526;52.612;13.300;2022-12-07T10:09:57;5.17;;;2.70;;
18796;SDS011;9526;52.612;13.300;2022-12-07T10:12:20;4.60;;;2.40;;
18796;SDS011;9526;52.612;13.300;2022-12-07T10:14:53;4.53;;;2.40;;
18796;SDS011;9526;52.612;13.300;2022-12-07T10:17:37;3.17;;;2.53;;
18796;SDS011;9526;52.612;13.300;2022-12-07T10:20:13;3.10;;;2.37;;
18796;SDS011;9526;52.612;13.300;2022-12-07T10:22:53;5.40;;;2.30;;
18796;SDS011;9526;52.612;13.300;2022-12-07T10:25:20;5.03;;;2.80;;
18796;SDS011;9526;52.612;13.300;2022-12-07T10:27:45;4.40;;;2.50;;
18796;SDS011;9526;52.612;13.300;2022-12-07T10:30:22;3.83;;;2.70;;
18796;SDS011;9526;52.612;13.300;2022-12-07T10:32:46;5.00;;;2.60;;
18796;SDS011;9526;52.612;13.300;2022-12-07T10:35:19;4.27;;;2.53;;
18796;SDS011;9526;52.612;13.300;2022-12-07T10:37:47;2.90;;;2.43;;
18796;SDS011;9526;52.612;13.300;2022-12-07T10:40:24;4.40;;;2.77;;
18796;SDS011;9526;52.612;13.300;2022-12-07T10:43:00;8.80;;;3.20;;
18796;SDS011;9526;52.612;13.300;2022-12-07T10:45:26;4.37;;;3.27;;
18796;SDS011;9526;52.612;13.300;2022-12-07T10:47:50;4.83;;;2.93;;
18796;SDS011;9526;52.612;13.300;2022-12-07T10:50:27;11.60;;;4.23;;
18796;SDS011;9526;52.612;13.300;2022-12-07T10:53:10;6.10;;;3.67;;
18796;SDS011;9526;52.612;13.300;2022-12-07T10:55:56;8.63;;;4.00;;
18796;SDS011;9526;52.612;13.300;2022-12-07T10:58:58;6.03;;;4.00;;
18796;SDS011;9526;52.612;13.300;2022-12-07T11:01:40;6.07;;;3.90;;
18796;SDS011;9526;52.612;13.300;2022-12-07T11:04:14;5.80;;;4.13;;
18796;SDS011;9526;52.612;13.300;2022-12-07T11:06:49;8.03;;;4.27;;
18796;SDS011;9526;52.612;13.300;2022-12-07T11:09:28;10.27;;;4.57;;
18796;SDS011;9526;52.612;13.300;2022-12-07T11:12:34;7.07;;;4.50;;
18796;SDS011;9526;52.612;13.300;2022-12-07T11:15:13;5.97;;;4.03;;
18796;SDS011;9526;52.612;13.300;2022-12-07T11:17:43;7.73;;;4.80;;
18796;SDS011;9526;52.612;13.300;2022-12-07T11:20:19;7.40;;;3.93;;
18796;SDS011;9526;52.612;13.300;2022-12-07T11:23:03;9.23;;;4.23;;
18796;SDS011;9526;52.612;13.300;2022-12-07T11:25:38;8.57;;;3.87;;
18796;SDS011;9526;52.612;13.300;2022-12-07T11:28:16;8.90;;;4.70;;
18796;SDS011;9526;52.612;13.300;2022-12-07T11:30:51;9.50;;;4.50;;
18796;SDS011;9526;52.612;13.300;2022-12-07T11:33:26;8.07;;;4.67;;
18796;SDS011;9526;52.612;13.300;2022-12-07T11:36:00;6.60;;;4.50;;
18796;SDS011;9526;52.612;13.300;2022-12-07T11:38:35;9.43;;;4.90;;
18796;SDS011;9526;52.612;13.300;2022-12-07T11:41:05;9.27;;;4.17;;
18796;SDS011;9526;52.612;13.300;2022-12-07T11:43:35;8.90;;;4.07;;
18796;SDS011;9526;52.612;13.300;2022-12-07T11:45:59;8.67;;;4.60;;
18796;SDS011;9526;52.612;13.300;2022-12-07T11:48:29;10.43;;;4.60;;
18796;SDS011;9526;52.612;13.300;2022-12-07T11:51:00;7.57;;;4.00;;
18796;SDS011;9526;52.612;13.300;2022-12-07T11:53:26;5.63;;;3.87;;
18796;SDS011;9526;52.612;13.300;2022-12-07T11:55:57;9.70;;;4.60;;
18796;SDS011;9526;52.612;13.300;2022-12-07T11:58:37;11.47;;;4.87;;
18796;SDS011;9526;52.612;13.300;2022-12-07T12:01:15;11.83;;;5.20;;
18796;SDS011;9526;52.612;13.300;2022-12-07T12:03:56;8.87;;;4.87;;
18796;SDS011;9526;52.612;13.300;2022-12-07T12:06:29;11.57;;;4.33;;
18796;SDS011;9526;52.612;13.300;2022-12-07T12:08:53;9.03;;;4.90;;
18796;SDS011;9526;52.612;13.300;2022-12-07T12:11:50;16.53;;;4.80;;
18796;SDS011;9526;52.612;13.300;2022-12-07T12:15:08;8.83;;;4.73;;
18796;SDS011;9526;52.612;13.300;2022-12-07T12:17:50;9.97;;;5.00;;
18796;SDS011;9526;52.612;13.300;2022-12-07T12:20:40;10.27;;;5.33;;
18796;SDS011;9526;52.612;13.300;2022-12-07T12:23:10;8.43;;;4.97;;
18796;SDS011;9526;52.612;13.300;2022-12-07T12:25:40;9.73;;;5.30;;
18796;SDS011;9526;52.612;13.300;2022-12-07T12:28:15;15.47;;;5.00;;
18796;SDS011;9526;52.612;13.300;2022-12-07T12:30:47;6.83;;;4.50;;
18796;SDS011;9526;52.612;13.300;2022-12-07T12:33:30;12.38;;;4.97;;
18796;SDS011;9526;52.612;13.300;2022-12-07T12:38:48;10.30;;;4.73;;
18796;SDS011;9526;52.612;13.300;2022-12-07T12:50:50;9.13;;;4.20;;
18796;SDS011;9526;52.612;13.300;2022-12-07T12:54:03;8.73;;;3.87;;
18796;SDS011;9526;52.612;13.300;2022-12-07T12:56:29;6.35;;;3.67;;
18796;SDS011;9526;52.612;13.300;2022-12-07T13:01:54;11.87;;;3.53;;
18796;SDS011;9526;52.612;13.300;2022-12-07T13:04:39;8.63;;;3.90;;
18796;SDS011;9526;52.612;13.300;2022-12-07T13:10:25;11.63;;;3.33;;
18796;SDS011;9526;52.612;13.300;2022-12-07T13:13:29;7.73;;;3.00;;
18796;SDS011;9526;52.612;13.300;2022-12-07T13:25:18;7.53;;;3.10;;
18796;SDS011;9526;52.612;13.300;2022-12-07T13:27:51;6.03;;;2.43;;
18796;SDS011;9526;52.612;13.300;2022-12-07T13:30:21;11.90;;;3.13;;
18796;SDS011;9526;52.612;13.300;2022-12-07T13:32:51;9.50;;;3.20;;
18796;SDS011;9526;52.612;13.300;2022-12-07T13:35:33;5.93;;;2.60;;
18796;SDS011;9526;52.612;13.300;2022-12-07T13:37:59;5.80;;;2.60;;
18796;SDS011;9526;52.612;13.300;2022-12-07T13:40:25;9.90;;;2.70;;
18796;SDS011;9526;52.612;13.300;2022-12-07T13:42:56;16.27;;;4.13;;
18796;SDS011;9526;52.612;13.300;2022-12-07T13:45:22;10.07;;;2.70;;
18796;SDS011;9526;52.612;13.300;2022-12-07T13:48:10;7.37;;;2.50;;
18796;SDS011;9526;52.612;13.300;2022-12-07T13:50:42;12.53;;;3.10;;
18796;SDS011;9526;52.612;13.300;2022-12-07T13:53:15;9.87;;;2.60;;
18796;SDS011;9526;52.612;13.300;2022-12-07T13:55:43;10.00;;;2.17;;
18796;SDS011;9526;52.612;13.300;2022-12-07T13:58:15;6.30;;;2.73;;
18796;SDS011;9526;52.612;13.300;2022-12-07T14:00:39;8.80;;;2.50;;
18796;SDS011;9526;52.612;13.300;2022-12-07T14:03:04;7.27;;;2.50;;
18796;SDS011;9526;52.612;13.300;2022-12-07T14:06:04;8.50;;;2.70;;
18796;SDS011;9526;52.612;13.300;2022-12-07T14:08:40;10.03;;;3.43;;
18796;SDS011;9526;52.612;13.300;2022-12-07T14:11:03;8.27;;;2.93;;
18796;SDS011;9526;52.612;13.300;2022-12-07T14:13:29;6.93;;;2.97;;
18796;SDS011;9526;52.612;13.300;2022-12-07T14:15:56;5.73;;;2.87;;
18796;SDS011;9526;52.612;13.300;2022-12-07T14:18:25;8.40;;;2.80;;
18796;SDS011;9526;52.612;13.300;2022-12-07T14:20:50;7.80;;;2.90;;
18796;SDS011;9526;52.612;13.300;2022-12-07T14:23:26;10.03;;;2.80;;
18796;SDS011;9526;52.612;13.300;2022-12-07T14:25:51;8.27;;;3.20;;
18796;SDS011;9526;52.612;13.300;2022-12-07T14:28:25;5.67;;;2.90;;
18796;SDS011;9526;52.612;13.300;2022-12-07T14:30:50;10.83;;;3.27;;
18796;SDS011;9526;52.612;13.300;2022-12-07T14:33:14;9.40;;;3.50;;
18796;SDS011;9526;52.612;13.300;2022-12-07T14:35:38;8.60;;;3.43;;
18796;SDS011;9526;52.612;13.300;2022-12-07T14:38:04;10.73;;;4.73;;
18796;SDS011;9526;52.612;13.300;2022-12-07T14:40:28;10.60;;;3.80;;
18796;SDS011;9526;52.612;13.300;2022-12-07T14:42:54;11.17;;;3.17;;
18796;SDS011;9526;52.612;13.300;2022-12-07T14:45:21;10.50;;;2.97;;
18796;SDS011;9526;52.612;13.300;2022-12-07T14:47:46;6.23;;;3.30;;
18796;SDS011;9526;52.612;13.300;2022-12-07T14:50:30;14.00;;;4.10;;
18796;SDS011;9526;52.612;13.300;2022-12-07T14:53:00;9.93;;;3.53;;
18796;SDS011;9526;52.612;13.300;2022-12-07T14:55:48;9.10;;;3.07;;
18796;SDS011;9526;52.612;13.300;2022-12-07T14:58:12;22.60;;;10.80;;
18796;SDS011;9526;52.612;13.300;2022-12-07T15:00:37;23.40;;;9.67;;
18796;SDS011;9526;52.612;13.300;2022-12-07T15:03:01;33.37;;;13.63;;
18796;SDS011;9526;52.612;13.300;2022-12-07T15:05:24;10.47;;;4.63;;
18796;SDS011;9526;52.612;13.300;2022-12-07T15:07:48;9.37;;;3.73;;
18796;SDS011;9526;52.612;13.300;2022-12-07T15:10:15;13.77;;;8.43;;